createdAt,value
2023-04-26T00:04:32.613Z,62.62
2023-04-26T00:09:35.304Z,61.42
2023-04-26T00:14:36.986Z,60.75
2023-04-26T00:19:39.790Z,61.26
2023-04-26T00:24:42.028Z,60.88
2023-04-26T00:29:46.410Z,61.18
2023-04-26T00:34:48.137Z,61.03
2023-04-26T00:39:52.733Z,60.96
2023-04-26T00:44:57.570Z,62.28
2023-04-26T00:50:01.388Z,62.41
2023-04-26T00:55:03.368Z,61.93
2023-04-26T01:00:05.847Z,63.06
2023-04-26T01:05:07.979Z,62.97
2023-04-26T01:10:10.524Z,62.55
2023-04-26T01:15:13.762Z,61.60
2023-04-26T01:20:15.484Z,62.83
2023-04-26T01:25:18.307Z,62.66
2023-04-26T01:30:20.238Z,63.13
2023-04-26T01:35:22.495Z,62.46
2023-04-26T01:40:24.246Z,63.53
2023-04-26T01:45:26.002Z,64.24
2023-04-26T01:50:46.236Z,63.17
2023-04-26T01:55:48.235Z,63.98
2023-04-26T02:00:49.874Z,64.82
2023-04-26T02:05:51.486Z,64.78
2023-04-26T02:10:53.259Z,65.75
2023-04-26T02:15:56.845Z,65.60
2023-04-26T02:20:58.538Z,65.25
2023-04-26T02:26:00.201Z,65.10
2023-04-26T02:31:02.773Z,65.62
2023-04-26T02:36:06.680Z,66.32
2023-04-26T02:41:08.466Z,66.51
2023-04-26T02:46:10.269Z,65.78
2023-04-26T02:51:12.012Z,65.95
2023-04-26T02:56:16.361Z,66.07
2023-04-26T03:01:18.926Z,65.26
2023-04-26T03:06:21.549Z,64.37
2023-04-26T03:11:23.313Z,64.51
2023-04-26T03:16:28.180Z,64.96
2023-04-26T03:21:30.050Z,66.19
2023-04-26T03:26:32.367Z,65.52
2023-04-26T03:31:34.698Z,66.14
2023-04-26T03:36:36.426Z,66.36
2023-04-26T03:41:41.312Z,66.44
2023-04-26T03:46:45.958Z,66.04
2023-04-26T03:51:47.639Z,66.61
2023-04-26T03:56:50.558Z,66.91
2023-04-26T04:01:52.398Z,65.89
2023-04-26T04:06:56.110Z,65.58
2023-04-26T04:11:57.856Z,64.77
2023-04-26T04:17:00.941Z,64.83
2023-04-26T04:22:04.118Z,64.56
2023-04-26T04:27:05.856Z,64.24
2023-04-26T04:32:08.086Z,64.84
2023-04-26T04:37:11.729Z,63.65
2023-04-26T04:42:14.208Z,63.79
2023-04-26T04:47:16.103Z,63.59
2023-04-26T04:52:19.083Z,63.71
2023-04-26T04:57:20.956Z,64.01
2023-04-26T05:02:25.148Z,63.60
2023-04-26T05:07:28.991Z,62.90
2023-04-26T05:12:31.530Z,63.48
2023-04-26T05:17:34.044Z,63.64
2023-04-26T05:22:50.083Z,62.89
2023-04-26T05:27:51.981Z,60.58
2023-04-26T05:33:08.158Z,60.04
2023-04-26T05:38:22.347Z,61.53
2023-04-26T05:43:24.077Z,61.16
2023-04-26T05:48:26.305Z,60.56
2023-04-26T05:53:28.097Z,59.61
2023-04-26T05:58:30.252Z,59.69
2023-04-26T06:03:32.278Z,59.99
2023-04-26T06:08:34.604Z,60.39
2023-04-26T06:13:36.215Z,60.22
2023-04-26T06:18:38.064Z,58.89
2023-04-26T06:23:41.473Z,58.41
2023-04-26T06:28:44.422Z,56.99
2023-04-26T06:33:46.120Z,56.58
2023-04-26T06:38:48.091Z,56.85
2023-04-26T06:43:49.825Z,55.29
2023-04-26T06:48:56.244Z,56.78
2023-04-26T06:54:01.418Z,57.50
2023-04-26T06:59:05.380Z,57.75
2023-04-26T07:04:08.358Z,58.58
2023-04-26T07:09:10.230Z,57.06
2023-04-26T07:14:12.014Z,57.13
2023-04-26T07:19:17.905Z,57.73
2023-04-26T07:24:19.621Z,58.10
2023-04-26T07:29:21.657Z,56.42
2023-04-26T07:34:23.313Z,55.13
2023-04-26T07:39:24.982Z,54.39
2023-04-26T07:44:26.766Z,54.88
2023-04-26T07:49:28.418Z,55.08
2023-04-26T07:54:30.131Z,54.92
2023-04-26T07:59:31.758Z,55.57
2023-04-26T08:04:34.536Z,55.06
2023-04-26T08:09:36.396Z,55.47
2023-04-26T08:14:38.670Z,58.02
2023-04-26T08:19:41.322Z,59.30
2023-04-26T08:24:49.747Z,56.06
2023-04-26T08:29:52.248Z,54.66
2023-04-26T08:34:54.470Z,53.82
2023-04-26T08:39:56.126Z,52.47
2023-04-26T08:45:01.092Z,53.06
2023-04-26T08:50:05.386Z,51.38
2023-04-26T08:55:10.141Z,51.49
2023-04-26T09:00:16.122Z,51.22
2023-04-26T09:05:18.763Z,51.98
2023-04-26T09:10:22.155Z,51.61
2023-04-26T09:15:27.772Z,50.49
2023-04-26T09:20:31.385Z,52.53
2023-04-26T09:25:33.368Z,50.15
2023-04-26T09:30:39.899Z,48.48
2023-04-26T09:35:43.390Z,48.06
2023-04-26T09:40:51.522Z,48.91
2023-04-26T09:45:58.325Z,49.08
2023-04-26T09:51:14.083Z,46.98
2023-04-26T09:56:19.029Z,47.38
2023-04-26T10:01:20.952Z,44.40
2023-04-26T10:06:23.059Z,46.56
2023-04-26T10:11:24.860Z,46.25
2023-04-26T10:16:26.486Z,42.48
2023-04-26T10:21:35.273Z,43.55
2023-04-26T10:26:54.917Z,44.22
2023-04-26T10:32:02.956Z,43.87
2023-04-26T10:37:17.162Z,43.26
2023-04-26T10:42:27.406Z,42.11
2023-04-26T10:47:35.997Z,41.85
2023-04-26T10:53:05.532Z,42.16
2023-04-26T10:58:35.568Z,40.35
2023-04-26T11:03:38.596Z,40.73
2023-04-26T11:08:40.853Z,39.84
2023-04-26T11:13:44.121Z,38.42
2023-04-26T11:18:47.892Z,39.26
2023-04-26T11:23:55.911Z,41.22
2023-04-26T11:28:57.618Z,41.56
2023-04-26T11:34:05.517Z,40.44
2023-04-26T11:39:09.462Z,39.52
2023-04-26T11:44:12.686Z,39.98
2023-04-26T11:49:18.041Z,39.24
2023-04-26T11:54:37.792Z,38.13
2023-04-26T11:59:39.760Z,37.47
2023-04-26T12:04:41.909Z,37.98
2023-04-26T12:09:46.077Z,38.31
2023-04-26T12:14:47.700Z,38.52
2023-04-26T12:19:50.209Z,42.21
2023-04-26T12:25:05.042Z,37.57
2023-04-26T12:30:07.597Z,38.89
2023-04-26T12:35:09.746Z,42.31
2023-04-26T12:40:12.421Z,41.07
2023-04-26T12:45:14.533Z,41.32
2023-04-26T12:50:18.663Z,43.19
2023-04-26T12:55:21.283Z,41.05
2023-04-26T13:00:22.956Z,40.20
2023-04-26T13:05:25.354Z,39.35
2023-04-26T13:10:27.144Z,40.67
2023-04-26T13:15:29.931Z,39.64
2023-04-26T13:20:31.764Z,39.90
2023-04-26T13:25:33.536Z,39.79
2023-04-26T13:30:37.787Z,40.19
2023-04-26T13:35:39.488Z,39.68
2023-04-26T13:40:41.347Z,38.64
2023-04-26T13:45:43.236Z,38.48
2023-04-26T13:50:47.987Z,36.63
2023-04-26T13:55:50.082Z,38.98
2023-04-26T14:00:52.350Z,36.38
2023-04-26T14:05:55.039Z,37.41
2023-04-26T14:10:56.774Z,38.44
2023-04-26T14:15:58.639Z,39.06
2023-04-26T14:21:00.885Z,37.77
2023-04-26T14:26:02.672Z,38.75
2023-04-26T14:31:04.614Z,38.63
2023-04-26T14:36:06.975Z,40.01
2023-04-26T14:41:09.212Z,39.28
2023-04-26T14:46:10.956Z,36.50
2023-04-26T14:51:12.909Z,37.14
2023-04-26T14:56:17.496Z,39.87
2023-04-26T15:01:19.168Z,39.57
2023-04-26T15:06:20.948Z,40.25
2023-04-26T15:11:22.586Z,41.57
2023-04-26T15:16:24.309Z,41.12
2023-04-26T15:21:27.452Z,40.40
2023-04-26T15:26:31.065Z,40.88
2023-04-26T15:31:32.852Z,40.21
2023-04-26T15:36:34.726Z,42.31
2023-04-26T15:41:36.446Z,40.83
2023-04-26T15:46:38.306Z,39.44
2023-04-26T15:51:40.083Z,40.91
2023-04-26T15:56:42.378Z,40.19
2023-04-26T16:01:44.221Z,40.16
2023-04-26T16:06:47.461Z,40.33
2023-04-26T16:11:49.284Z,40.45
2023-04-26T16:16:51.003Z,40.40
2023-04-26T16:21:52.675Z,41.37
2023-04-26T16:26:56.345Z,40.95
2023-04-26T16:31:58.138Z,40.42
2023-04-26T16:36:59.899Z,42.11
2023-04-26T16:42:02.315Z,41.45
2023-04-26T16:47:04.287Z,41.12
2023-04-26T16:52:06.020Z,41.76
2023-04-26T16:57:08.798Z,42.54
2023-04-26T17:02:10.426Z,41.79
2023-04-26T17:07:12.912Z,42.49
2023-04-26T17:12:17.303Z,41.77
2023-04-26T17:17:18.961Z,41.23
2023-04-26T17:22:20.746Z,40.73
2023-04-26T17:27:24.821Z,43.32
2023-04-26T17:32:26.772Z,43.09
2023-04-26T17:37:28.717Z,44.04
2023-04-26T17:42:30.549Z,43.64
2023-04-26T17:47:32.357Z,44.60
2023-04-26T17:52:34.250Z,43.93
2023-04-26T17:57:38.138Z,43.35
2023-04-26T18:02:40.189Z,43.62
2023-04-26T18:07:42.226Z,43.77
2023-04-26T18:12:43.911Z,44.27
2023-04-26T18:17:49.528Z,44.85
2023-04-26T18:22:51.585Z,45.31
2023-04-26T18:27:53.337Z,44.94
2023-04-26T18:32:55.069Z,45.89
2023-04-26T18:37:57.201Z,46.99
2023-04-26T18:42:58.898Z,46.85
2023-04-26T18:48:00.885Z,47.67
2023-04-26T18:53:02.934Z,47.72
2023-04-26T18:58:04.591Z,48.84
2023-04-26T19:03:06.714Z,48.05
2023-04-26T19:08:09.158Z,48.37
2023-04-26T19:13:11.194Z,47.37
2023-04-26T19:18:12.936Z,47.29
2023-04-26T19:23:16.971Z,48.01
2023-04-26T19:28:18.769Z,46.88
2023-04-26T19:33:20.714Z,48.40
2023-04-26T19:38:23.579Z,48.06
2023-04-26T19:43:25.208Z,48.04
2023-04-26T19:48:27.824Z,48.35
2023-04-26T19:53:29.461Z,48.80
2023-04-26T19:58:32.451Z,48.65
2023-04-26T20:03:34.320Z,48.63
2023-04-26T20:08:55.850Z,49.76
2023-04-26T20:13:57.444Z,49.81
2023-04-26T20:18:59.038Z,50.39
2023-04-26T20:24:00.715Z,49.92
2023-04-26T20:29:02.420Z,49.90
2023-04-26T20:34:04.117Z,50.31
2023-04-26T20:39:06.000Z,49.46
2023-04-26T20:44:07.881Z,50.44
2023-04-26T20:49:09.742Z,50.75
2023-04-26T20:54:11.673Z,50.85
2023-04-26T20:59:13.514Z,51.64
2023-04-26T21:04:16.055Z,50.84
2023-04-26T21:09:18.223Z,50.67
2023-04-26T21:14:19.877Z,51.01
2023-04-26T21:19:22.048Z,51.76
2023-04-26T21:24:23.847Z,52.51
2023-04-26T21:29:25.579Z,52.46
2023-04-26T21:34:27.289Z,52.06
2023-04-26T21:39:29.002Z,52.47
2023-04-26T21:44:31.930Z,53.31
2023-04-26T21:49:34.605Z,54.34
2023-04-26T21:54:36.837Z,54.14
2023-04-26T21:59:42.155Z,54.69
2023-04-26T22:04:43.810Z,54.98
2023-04-26T22:09:48.745Z,55.51
2023-04-26T22:14:50.482Z,55.28
2023-04-26T22:19:52.072Z,55.85
2023-04-26T22:24:53.721Z,56.54
2023-04-26T22:29:55.340Z,56.96
2023-04-26T22:34:57.027Z,57.94
2023-04-26T22:39:58.847Z,58.18
2023-04-26T22:45:01.025Z,58.47
2023-04-26T22:50:03.225Z,58.43
2023-04-26T22:55:07.957Z,58.43
2023-04-26T23:00:12.283Z,58.91
2023-04-26T23:05:14.019Z,59.09
2023-04-26T23:10:17.986Z,59.06
2023-04-26T23:15:19.900Z,59.24
2023-04-26T23:20:21.766Z,60.28
2023-04-26T23:25:23.592Z,60.77
2023-04-26T23:30:25.294Z,60.65
2023-04-26T23:35:26.971Z,61.14
2023-04-26T23:40:28.659Z,62.01
2023-04-26T23:45:30.554Z,61.71
2023-04-26T23:50:32.314Z,62.83
2023-04-26T23:55:33.987Z,62.26
